Time;durP1;ratioP1;P1;durP2;ratioP2;P2;SDS_P1;SDS_P2;PMS_P1;PMS_P2;Temp;Humidity;BMP_temperature;BMP_pressure;BME280_temperature;BME280_humidity;BME280_pressure;Samples;Min_cycle;Max_cycle;Signal;HPM_P1;HPM_P2
2022/08/05 00:00:09;;;;;;;5.85;3.70;;;;;;;27.61;49.13;95354.25;4897424;29;20572;-81
2022/08/05 00:02:37;;;;;;;5.03;3.67;;;;;;;27.58;49.31;95357.47;4884813;29;20239;-82
2022/08/05 00:05:04;;;;;;;3.90;3.60;;;;;;;27.60;49.24;95352.69;4885958;29;20198;-81
2022/08/05 00:07:30;;;;;;;3.88;3.55;;;;;;;27.53;49.41;95346.94;4897895;29;20230;-81
2022/08/05 00:09:57;;;;;;;5.18;3.63;;;;;;;27.48;49.49;95347.84;4891666;29;20203;-81
2022/08/05 00:12:23;;;;;;;6.43;3.65;;;;;;;27.40;49.74;95343.19;4877292;29;20211;-81
2022/08/05 00:14:51;;;;;;;4.00;3.70;;;;;;;27.37;49.85;95343.75;4880007;29;20208;-81
2022/08/05 00:17:17;;;;;;;4.30;3.97;;;;;;;27.31;49.97;95349.44;4878644;29;20230;-81
2022/08/05 00:19:44;;;;;;;5.78;3.83;;;;;;;27.31;50.36;95339.66;4888611;29;20237;-82
2022/08/05 00:22:10;;;;;;;4.13;3.83;;;;;;;27.37;50.18;95341.13;4895101;29;20210;-82
2022/08/05 00:24:37;;;;;;;4.32;3.95;;;;;;;27.34;50.09;95335.63;4878370;29;20227;-82
2022/08/05 00:27:04;;;;;;;6.00;3.80;;;;;;;27.35;49.94;95337.97;4891162;29;20223;-82
2022/08/05 00:29:30;;;;;;;4.32;3.95;;;;;;;27.36;49.91;95336.13;4897796;29;20211;-82
2022/08/05 00:31:58;;;;;;;4.50;4.10;;;;;;;27.26;50.31;95337.06;4885215;29;20228;-82
2022/08/05 00:34:24;;;;;;;4.65;4.25;;;;;;;27.29;50.04;95333.84;4888233;29;20607;-82
2022/08/05 00:36:51;;;;;;;4.60;4.20;;;;;;;27.21;50.39;95331.84;4897480;29;20249;-82
2022/08/05 00:39:17;;;;;;;4.80;4.40;;;;;;;27.18;50.79;95329.78;4881733;29;20204;-82
2022/08/05 00:41:46;;;;;;;4.10;3.75;;;;;;;27.14;50.75;95332.19;4878224;29;20219;-82
2022/08/05 00:44:13;;;;;;;4.15;3.80;;;;;;;27.08;50.90;95338.66;4892657;29;20230;-82
2022/08/05 00:46:40;;;;;;;4.30;4.00;;;;;;;27.07;50.88;95337.09;4897054;29;20286;-82
2022/08/05 00:49:07;;;;;;;4.63;3.80;;;;;;;27.00;51.62;95339.28;4883926;29;20223;-82
2022/08/05 00:51:35;;;;;;;4.03;3.72;;;;;;;27.01;51.03;95337.44;4902236;29;20218;-82
2022/08/05 00:54:02;;;;;;;4.30;3.90;;;;;;;26.92;51.72;95334.63;4898043;29;20234;-82
2022/08/05 00:56:28;;;;;;;4.60;4.20;;;;;;;26.83;52.05;95334.47;4891527;29;20208;-82
2022/08/05 00:58:55;;;;;;;4.80;4.15;;;;;;;26.74;52.56;95335.41;4897938;29;20227;-82
2022/08/05 01:01:21;;;;;;;4.10;3.80;;;;;;;26.70;52.12;95331.75;4907784;29;20770;-81
2022/08/05 01:03:48;;;;;;;4.10;3.80;;;;;;;26.68;51.93;95331.25;4889810;29;20235;-81
2022/08/05 01:06:15;;;;;;;4.28;3.97;;;;;;;26.73;52.04;95329.34;4890878;29;20234;-81
2022/08/05 01:08:42;;;;;;;4.35;4.03;;;;;;;26.66;52.82;95326.25;4889621;29;20287;-82
2022/08/05 01:11:13;;;;;;;4.20;3.90;;;;;;;26.55;52.85;95324.03;4904803;29;20199;-81
2022/08/05 01:13:49;;;;;;;4.03;3.60;;;;;;;26.40;53.31;95330.25;4902897;29;20227;-82
2022/08/05 01:16:24;;;;;;;3.60;3.40;;;;;;;26.37;53.71;95331.59;4889284;29;20648;-81
2022/08/05 01:18:54;;;;;;;4.45;4.05;;;;;;;26.38;53.17;95335.03;4895481;29;20229;-81
2022/08/05 01:21:48;;;;;;;4.20;3.80;;;;;;;26.40;53.47;95343.47;4906590;29;20211;-81
2022/08/05 01:24:31;;;;;;;4.90;3.88;;;;;;;26.46;53.06;95331.78;4894421;29;20643;-82
2022/08/05 01:27:06;;;;;;;6.82;4.30;;;;;;;26.44;53.47;95333.91;4888313;29;20704;-82
2022/08/05 01:29:40;;;;;;;4.20;3.80;;;;;;;26.47;53.00;95334.13;4900340;29;20278;-82
2022/08/05 01:32:11;;;;;;;4.72;4.35;;;;;;;26.55;52.83;95338.03;4906905;29;20207;-81
2022/08/05 01:34:41;;;;;;;4.43;4.03;;;;;;;26.55;52.96;95332.75;4893818;29;20231;-81
2022/08/05 01:37:12;;;;;;;4.65;4.07;;;;;;;26.60;52.66;95334.50;4906387;29;20222;-81
2022/08/05 01:39:41;;;;;;;4.03;3.63;;;;;;;26.57;52.63;95327.94;4906719;29;20211;-81
2022/08/05 01:42:12;;;;;;;6.53;3.80;;;;;;;26.55;52.43;95331.94;4907006;29;20913;-81
2022/08/05 01:44:40;;;;;;;4.22;3.85;;;;;;;26.56;52.66;95325.56;4894648;29;20295;-81
2022/08/05 01:47:08;;;;;;;5.65;3.97;;;;;;;26.59;52.50;95323.16;4889226;29;20665;-82
2022/08/05 01:49:38;;;;;;;4.95;3.80;;;;;;;26.54;52.78;95325.09;4907052;29;20206;-81
2022/08/05 01:52:06;;;;;;;4.28;3.83;;;;;;;26.58;52.41;95326.06;4906500;29;20239;-81
2022/08/05 01:54:42;;;;;;;4.60;3.60;;;;;;;26.58;52.31;95320.78;4887976;29;20275;-80
2022/08/05 01:57:10;;;;;;;4.53;4.13;;;;;;;26.63;52.06;95331.31;4905773;29;20274;-81
2022/08/05 01:59:39;;;;;;;4.05;3.60;;;;;;;26.56;52.18;95334.28;4905178;29;20209;-81
2022/08/05 02:02:08;;;;;;;4.20;3.90;;;;;;;26.61;52.30;95328.94;4906185;29;20631;-81
2022/08/05 02:04:37;;;;;;;4.30;3.90;;;;;;;26.65;51.87;95329.97;4887354;29;20231;-80
2022/08/05 02:07:04;;;;;;;4.45;4.13;;;;;;;26.74;51.42;95330.91;4888174;29;20239;-82
2022/08/05 02:09:31;;;;;;;5.10;3.75;;;;;;;26.79;51.32;95322.09;4899027;29;20251;-81
2022/08/05 02:12:02;;;;;;;4.88;3.72;;;;;;;26.71;51.78;95331.47;4887723;29;20218;-81
2022/08/05 02:14:33;;;;;;;5.30;4.13;;;;;;;26.74;51.53;95332.75;4888465;29;20228;-81
2022/08/05 02:17:04;;;;;;;4.13;3.83;;;;;;;26.71;51.77;95330.69;4888275;29;20224;-81
2022/08/05 02:19:35;;;;;;;4.32;3.60;;;;;;;26.67;51.64;95333.09;4903906;29;20215;-81
2022/08/05 02:22:07;;;;;;;4.35;3.95;;;;;;;26.67;51.63;95329.66;4892905;29;20224;-81
2022/08/05 02:24:37;;;;;;;4.10;3.78;;;;;;;26.71;51.74;95325.41;4887055;29;20256;-80
2022/08/05 02:27:07;;;;;;;4.35;3.95;;;;;;;26.71;51.21;95322.75;4900439;29;20261;-81
2022/08/05 02:29:36;;;;;;;4.28;3.88;;;;;;;26.74;51.38;95325.63;4906941;29;20231;-81
2022/08/05 02:32:06;;;;;;;4.50;3.83;;;;;;;26.79;51.28;95328.19;4894347;29;20209;-81
2022/08/05 02:34:35;;;;;;;3.95;3.65;;;;;;;26.73;51.33;95329.34;4902726;29;20235;-81
2022/08/05 02:37:05;;;;;;;4.10;3.72;;;;;;;26.69;51.68;95328.31;4894669;29;20271;-81
2022/08/05 02:39:36;;;;;;;4.20;3.80;;;;;;;26.65;51.57;95322.03;4888144;29;20211;-81
2022/08/05 02:42:05;;;;;;;4.88;4.00;;;;;;;26.63;51.58;95329.44;4902282;29;20203;-80
2022/08/05 02:44:35;;;;;;;4.85;3.80;;;;;;;26.58;52.17;95331.38;4891305;29;20227;-82
2022/08/05 02:47:02;;;;;;;4.65;4.25;;;;;;;26.55;52.21;95330.09;4888592;29;20234;-80
2022/08/05 02:49:32;;;;;;;4.72;3.90;;;;;;;26.54;52.33;95328.53;4900160;29;20202;-82
2022/08/05 02:52:01;;;;;;;4.30;3.80;;;;;;;26.47;52.72;95325.44;4905697;29;20215;-80
2022/08/05 02:54:28;;;;;;;4.20;3.90;;;;;;;26.38;53.22;95329.75;4892647;29;20681;-81
2022/08/05 02:56:56;;;;;;;4.63;4.18;;;;;;;26.44;52.56;95321.50;4902987;29;20278;-81
2022/08/05 02:59:25;;;;;;;4.57;4.03;;;;;;;26.47;52.31;95322.78;4905740;29;20206;-81
2022/08/05 03:01:59;;;;;;;3.88;3.58;;;;;;;26.43;52.39;95321.78;4905972;29;20248;-81
2022/08/05 03:04:26;;;;;;;4.45;3.92;;;;;;;26.35;52.45;95310.00;4905009;29;20741;-82
2022/08/05 03:06:53;;;;;;;4.00;3.60;;;;;;;26.38;52.22;95317.34;4905502;29;20233;-81
2022/08/05 03:09:21;;;;;;;4.03;3.63;;;;;;;26.33;52.62;95325.34;4893864;29;20203;-80
2022/08/05 03:11:47;;;;;;;4.13;3.80;;;;;;;26.36;52.38;95319.47;4901766;29;20591;-81
2022/08/05 03:14:14;;;;;;;3.85;3.47;;;;;;;26.40;51.79;95315.19;4902938;29;20277;-81
2022/08/05 03:16:40;;;;;;;3.42;3.22;;;;;;;26.47;51.83;95320.16;4905007;29;20206;-82
2022/08/05 03:19:07;;;;;;;4.00;3.70;;;;;;;26.40;52.30;95322.34;4893087;29;20271;-82
2022/08/05 03:21:33;;;;;;;3.90;3.60;;;;;;;26.42;52.05;95317.56;4900867;29;20250;-81
2022/08/05 03:24:01;;;;;;;4.45;4.07;;;;;;;26.40;52.51;95325.75;4893960;29;20787;-82
2022/08/05 03:26:29;;;;;;;4.30;3.90;;;;;;;26.41;52.55;95318.63;4886992;29;20232;-82
2022/08/05 03:28:55;;;;;;;4.13;3.83;;;;;;;26.42;52.24;95320.19;4892955;29;20882;-82
2022/08/05 03:31:22;;;;;;;4.03;3.72;;;;;;;26.27;52.87;95325.63;4919782;29;20202;-82
2022/08/05 03:33:49;;;;;;;4.03;3.63;;;;;;;26.30;52.50;95314.56;4924310;29;20297;-81
2022/08/05 03:36:15;;;;;;;4.78;3.90;;;;;;;26.26;52.96;95316.94;4915272;29;20671;-82
2022/08/05 03:38:42;;;;;;;4.80;3.83;;;;;;;26.26;52.83;95318.78;4904608;29;20223;-81
2022/08/05 03:41:09;;;;;;;4.78;3.95;;;;;;;26.20;53.64;95318.06;4903267;29;20199;-81
2022/08/05 03:43:36;;;;;;;3.50;3.30;;;;;;;26.19;53.17;95320.97;4904421;29;20238;-81
2022/08/05 03:46:04;;;;;;;4.97;3.92;;;;;;;26.17;53.23;95314.13;4899469;29;20202;-82
2022/08/05 03:48:31;;;;;;;4.00;3.70;;;;;;;26.17;53.06;95315.22;4886450;29;20224;-82
2022/08/05 03:51:07;;;;;;;3.80;3.50;;;;;;;26.08;53.67;95309.75;4890743;29;20874;-81
2022/08/05 03:53:39;;;;;;;4.43;3.80;;;;;;;25.97;53.72;95311.72;4902118;29;20233;-81
2022/08/05 03:56:07;;;;;;;4.40;4.07;;;;;;;25.90;54.28;95311.25;4895232;29;20214;-80
2022/08/05 03:58:38;;;;;;;4.05;3.75;;;;;;;25.96;54.48;95312.00;4920309;29;20658;-80
2022/08/05 04:01:07;;;;;;;4.13;3.67;;;;;;;26.01;54.64;95325.13;4910290;29;20211;-80
2022/08/05 04:03:37;;;;;;;3.95;3.65;;;;;;;26.00;53.79;95313.00;4895273;29;20592;-80
2022/08/05 04:06:05;;;;;;;5.72;3.90;;;;;;;26.00;53.84;95318.28;4881531;29;20207;-80
2022/08/05 04:08:32;;;;;;;4.30;3.72;;;;;;;26.05;53.50;95319.00;4892625;29;20318;-80
2022/08/05 04:11:00;;;;;;;4.13;3.67;;;;;;;26.12;53.09;95318.69;4900691;29;20693;-81
2022/08/05 04:13:27;;;;;;;3.80;3.50;;;;;;;26.10;53.06;95313.69;4892566;29;20238;-81
2022/08/05 04:15:56;;;;;;;3.83;3.42;;;;;;;26.11;52.77;95320.53;4896664;29;20204;-81
2022/08/05 04:18:23;;;;;;;6.05;3.90;;;;;;;26.14;52.96;95319.19;4887548;29;20216;-82
2022/08/05 04:20:52;;;;;;;5.95;4.10;;;;;;;26.22;52.64;95328.31;4892083;29;20215;-80
2022/08/05 04:23:19;;;;;;;4.50;3.63;;;;;;;26.25;52.79;95343.59;4895792;29;20252;-80
2022/08/05 04:25:45;;;;;;;3.90;3.60;;;;;;;26.25;52.68;95357.59;4890918;29;20210;-80
2022/08/05 04:28:12;;;;;;;4.13;3.80;;;;;;;26.17;53.01;95371.38;4900725;29;20230;-80
2022/08/05 04:30:38;;;;;;;4.22;3.67;;;;;;;26.09;53.45;95366.75;4882983;29;20672;-81
2022/08/05 04:33:06;;;;;;;4.13;3.83;;;;;;;26.03;54.06;95376.56;4884026;29;20235;-81
2022/08/05 04:35:32;;;;;;;4.20;3.88;;;;;;;25.80;55.78;95383.34;4885767;29;20255;-80
2022/08/05 04:37:59;;;;;;;4.82;3.70;;;;;;;25.82;55.82;95383.06;4922888;29;20724;-82
2022/08/05 04:40:25;;;;;;;3.97;3.65;;;;;;;25.81;55.91;95371.72;4916206;29;20207;-82
2022/08/05 04:42:51;;;;;;;4.50;3.95;;;;;;;25.94;55.75;95382.72;4903768;29;20234;-82
2022/08/05 04:45:18;;;;;;;3.60;3.30;;;;;;;26.04;55.30;95388.69;4894835;29;20213;-82
2022/08/05 04:47:44;;;;;;;4.38;3.85;;;;;;;26.21;54.72;95380.34;4894738;29;20223;-82
2022/08/05 04:50:12;;;;;;;4.22;3.50;;;;;;;26.33;54.43;95386.06;4904868;29;20211;-81
2022/08/05 04:52:38;;;;;;;5.25;3.70;;;;;;;26.45;54.10;95378.53;4901284;29;20234;-82
2022/08/05 04:55:05;;;;;;;4.00;3.60;;;;;;;26.52;54.01;95377.41;4906318;29;20214;-82
2022/08/05 04:57:32;;;;;;;3.55;3.25;;;;;;;26.63;53.15;95392.84;4906375;29;20227;-82
2022/08/05 04:59:58;;;;;;;3.60;3.30;;;;;;;26.65;52.39;95384.63;4906244;29;20592;-81
2022/08/05 05:02:25;;;;;;;3.60;3.33;;;;;;;26.74;52.40;95381.09;4905140;29;20210;-81
2022/08/05 05:04:51;;;;;;;6.45;3.40;;;;;;;26.82;51.45;95388.38;4890384;29;20211;-81
2022/08/05 05:07:19;;;;;;;3.28;3.08;;;;;;;26.87;51.11;95384.09;4887765;29;20228;-81
2022/08/05 05:09:45;;;;;;;4.38;3.70;;;;;;;27.00;51.12;95389.50;4889599;29;20207;-82
2022/08/05 05:12:12;;;;;;;3.58;3.30;;;;;;;27.04;50.19;95393.16;4888584;29;20219;-81
2022/08/05 05:14:38;;;;;;;5.10;3.22;;;;;;;27.08;50.48;95394.16;4887749;29;20235;-82
2022/08/05 05:17:05;;;;;;;5.20;3.10;;;;;;;27.13;50.56;95396.72;4888378;29;20230;-83
2022/08/05 05:19:31;;;;;;;3.40;3.10;;;;;;;27.20;50.13;95390.28;4894430;29;20218;-82
2022/08/05 05:21:58;;;;;;;3.85;3.45;;;;;;;27.23;49.87;95401.09;4907376;29;20206;-82
2022/08/05 05:24:25;;;;;;;3.60;3.30;;;;;;;27.30;49.99;95396.25;4910966;29;20621;-82
2022/08/05 05:26:52;;;;;;;3.88;3.15;;;;;;;27.33;50.03;95395.66;4925946;29;20206;-81
2022/08/05 05:29:18;;;;;;;3.58;3.25;;;;;;;27.40;50.04;95400.59;4926206;29;20206;-81
2022/08/05 05:31:45;;;;;;;3.60;3.30;;;;;;;27.46;49.83;95402.09;4918338;29;20213;-81
2022/08/05 05:34:11;;;;;;;7.30;6.70;;;;;;;27.52;49.46;95399.06;4911888;29;20237;-81
2022/08/05 05:36:38;;;;;;;5.40;4.90;;;;;;;27.56;49.44;95398.50;4928505;29;20226;-82
2022/08/05 05:39:04;;;;;;;4.70;4.13;;;;;;;27.56;48.61;95395.84;4928145;29;20210;-80
2022/08/05 05:41:32;;;;;;;3.60;3.30;;;;;;;27.60;48.49;95402.94;4916576;29;20271;-82
2022/08/05 05:43:59;;;;;;;5.10;3.10;;;;;;;27.66;48.20;95401.81;4889601;29;20239;-81
2022/08/05 05:46:25;;;;;;;3.65;3.35;;;;;;;27.72;48.18;95403.28;4888585;29;20218;-82
2022/08/05 05:48:52;;;;;;;3.78;3.33;;;;;;;27.78;47.70;95404.78;4888195;29;20232;-81
2022/08/05 05:51:22;;;;;;;3.72;3.05;;;;;;;27.93;47.59;95402.94;4889342;29;20207;-82
2022/08/05 05:53:48;;;;;;;5.30;3.38;;;;;;;27.92;46.85;95399.50;4885276;29;20243;-80
2022/08/05 05:56:15;;;;;;;5.00;3.20;;;;;;;27.95;47.29;95404.22;4900284;29;20631;-79
2022/08/05 05:58:42;;;;;;;6.22;3.15;;;;;;;27.97;47.40;95411.88;4908283;29;20230;-82
2022/08/05 06:01:09;;;;;;;5.63;3.10;;;;;;;27.90;47.36;95409.63;4909801;29;20689;-82
2022/08/05 06:03:36;;;;;;;5.55;4.10;;;;;;;27.81;47.53;95400.78;4907366;29;20242;-81
2022/08/05 06:06:05;;;;;;;4.13;3.78;;;;;;;27.68;47.41;95404.97;4900410;29;20232;-82
2022/08/05 06:08:32;;;;;;;3.85;3.50;;;;;;;27.72;48.13;95402.50;4922408;29;20277;-81
2022/08/05 06:10:59;;;;;;;4.88;3.28;;;;;;;27.63;47.67;95405.03;4923172;29;20199;-82
2022/08/05 06:13:26;;;;;;;3.75;3.22;;;;;;;27.55;48.15;95412.78;4908502;29;20260;-82
2022/08/05 06:15:54;;;;;;;6.72;3.00;;;;;;;27.53;48.26;95411.22;4911083;29;20274;-82
2022/08/05 06:18:20;;;;;;;5.10;3.65;;;;;;;27.66;48.17;95406.31;4911426;29;20696;-81
2022/08/05 06:20:46;;;;;;;4.45;3.08;;;;;;;27.79;47.87;95408.22;4909455;29;20215;-81
2022/08/05 06:23:13;;;;;;;3.35;2.90;;;;;;;27.84;47.34;95400.97;4912880;29;20718;-81
2022/08/05 06:25:39;;;;;;;4.88;3.00;;;;;;;27.92;47.70;95404.81;4927078;29;20206;-81
2022/08/05 06:28:06;;;;;;;3.20;2.90;;;;;;;27.90;47.81;95404.34;4926915;29;20230;-81
2022/08/05 06:30:32;;;;;;;5.40;3.05;;;;;;;27.93;47.19;95410.88;4927288;29;20266;-82
2022/08/05 06:33:00;;;;;;;6.88;3.13;;;;;;;27.95;47.84;95401.59;4925781;29;20234;-81
2022/08/05 06:35:26;;;;;;;3.25;2.90;;;;;;;28.03;47.64;95406.22;4927684;29;20214;-82
2022/08/05 06:37:53;;;;;;;3.40;3.10;;;;;;;28.00;47.03;95406.81;4926046;29;20218;-81
2022/08/05 06:40:19;;;;;;;3.00;2.80;;;;;;;28.09;47.09;95407.72;4927094;29;20198;-81
2022/08/05 06:42:46;;;;;;;3.70;2.70;;;;;;;28.15;47.36;95419.78;4904062;29;20231;-82
2022/08/05 06:45:13;;;;;;;3.95;3.10;;;;;;;28.20;46.75;95416.28;4890768;29;20218;-82
2022/08/05 06:47:39;;;;;;;3.10;2.80;;;;;;;28.19;46.65;95422.63;4890384;29;20235;-82
2022/08/05 06:50:08;;;;;;;5.72;2.83;;;;;;;28.18;46.46;95423.72;4888094;29;20207;-81
2022/08/05 06:52:35;;;;;;;3.63;3.00;;;;;;;28.31;46.44;95422.97;4888574;29;20250;-81
2022/08/05 06:55:01;;;;;;;7.25;3.10;;;;;;;28.45;46.32;95417.69;4893913;29;20206;-82
2022/08/05 06:57:28;;;;;;;3.63;3.05;;;;;;;28.38;46.42;95418.06;4908443;29;20290;-82
2022/08/05 06:59:54;;;;;;;6.13;3.17;;;;;;;28.42;46.51;95428.88;4916189;29;20205;-82
2022/08/05 07:02:20;;;;;;;3.60;3.17;;;;;;;28.40;46.29;95423.09;4921780;29;20572;-82
2022/08/05 07:04:47;;;;;;;7.43;3.00;;;;;;;28.34;45.76;95432.97;4921652;29;20214;-82
2022/08/05 07:07:15;;;;;;;5.75;2.85;;;;;;;28.22;45.81;95431.88;4901654;29;20814;-81
2022/08/05 07:09:41;;;;;;;3.90;2.88;;;;;;;28.17;45.53;95430.06;4899222;29;20263;-82
2022/08/05 07:16:47;;;;;;;4.78;3.03;;;;;;;28.16;45.94;95429.28;4904369;29;20263;-82
2022/08/05 07:17:39;;;;;;;3.30;3.10;;;;;;;28.17;46.13;95440.66;4905070;29;20381;-83
2022/08/05 07:20:07;;;;;;;4.72;3.00;;;;;;;28.18;46.21;95450.19;4892762;29;20207;-82
2022/08/05 07:22:35;;;;;;;3.40;3.05;;;;;;;28.09;46.80;95452.72;4883691;29;20211;-81
2022/08/05 07:25:02;;;;;;;4.63;2.75;;;;;;;28.12;46.81;95459.28;4901020;29;20210;-82
2022/08/05 07:27:28;;;;;;;3.38;3.03;;;;;;;28.15;46.81;95464.78;4899336;29;20223;-83
2022/08/05 07:29:57;;;;;;;4.28;3.10;;;;;;;28.18;46.38;95477.44;4891254;29;20199;-82
2022/08/05 07:32:23;;;;;;;4.93;3.00;;;;;;;28.24;46.87;95480.84;4886613;29;20203;-82
2022/08/05 07:34:50;;;;;;;9.48;3.45;;;;;;;28.19;46.70;95481.69;4903128;29;20255;-82
2022/08/05 07:37:19;;;;;;;3.75;3.25;;;;;;;28.16;46.91;95479.59;4902470;29;20228;-83
2022/08/05 07:39:47;;;;;;;3.42;3.13;;;;;;;28.16;46.79;95479.59;4888914;29;20222;-83
2022/08/05 07:42:14;;;;;;;5.97;3.10;;;;;;;28.38;46.91;95486.94;4899035;29;20223;-83
2022/08/05 07:44:40;;;;;;;6.40;3.00;;;;;;;28.54;46.68;95496.19;4903864;29;20233;-83
2022/08/05 07:47:06;;;;;;;6.55;3.10;;;;;;;28.56;46.95;95490.59;4887985;29;20227;-83
2022/08/05 07:49:34;;;;;;;3.72;3.30;;;;;;;28.53;46.13;95507.09;4883522;29;20228;-83
2022/08/05 07:52:00;;;;;;;6.80;3.20;;;;;;;28.63;45.97;95511.44;4891176;29;20207;-82
2022/08/05 07:54:27;;;;;;;3.03;2.83;;;;;;;28.67;45.41;95529.06;4895316;29;20235;-83
2022/08/05 07:56:54;;;;;;;4.03;3.28;;;;;;;28.58;45.35;95524.75;4898493;29;20282;-82
2022/08/05 07:59:21;;;;;;;3.67;2.92;;;;;;;28.74;45.12;95518.09;4883741;29;20565;-82
2022/08/05 08:01:48;;;;;;;3.55;3.20;;;;;;;28.99;44.40;95522.19;4899212;29;20213;-82
2022/08/05 08:04:16;;;;;;;3.70;3.20;;;;;;;29.31;44.15;95519.41;4892428;29;20885;-82
2022/08/05 08:06:42;;;;;;;3.20;2.90;;;;;;;29.45;42.84;95522.06;4905741;29;20211;-81
2022/08/05 08:09:08;;;;;;;5.10;3.72;;;;;;;29.61;42.36;95522.56;4896150;29;20282;-82
2022/08/05 08:11:35;;;;;;;8.90;5.82;;;;;;;29.65;41.89;95536.78;4904739;29;20675;-82
2022/08/05 08:14:03;;;;;;;8.52;4.90;;;;;;;29.47;41.25;95530.53;4896862;29;20256;-82
2022/08/05 08:16:30;;;;;;;6.65;3.28;;;;;;;29.54;42.05;95534.34;4903533;29;20203;-82
2022/08/05 08:18:56;;;;;;;4.22;3.60;;;;;;;29.55;41.19;95545.75;4891749;29;20235;-82
2022/08/05 08:21:23;;;;;;;5.25;3.50;;;;;;;29.66;41.43;95551.63;4905209;29;20203;-82
2022/08/05 08:23:50;;;;;;;4.10;3.70;;;;;;;29.82;41.10;95556.34;4904166;29;20258;-81
2022/08/05 08:26:16;;;;;;;4.15;3.63;;;;;;;29.84;40.71;95561.31;4887260;29;20215;-83
2022/08/05 08:28:42;;;;;;;4.50;3.78;;;;;;;29.75;41.08;95566.56;4900375;29;20281;-82
2022/08/05 08:31:13;;;;;;;6.18;3.50;;;;;;;29.70;41.32;95569.31;4904677;29;21103;-82
2022/08/05 08:33:39;;;;;;;5.72;4.07;;;;;;;29.75;41.42;95571.88;4907840;29;20235;-82
2022/08/05 08:36:07;;;;;;;6.03;3.83;;;;;;;30.06;41.23;95572.00;4910347;29;20213;-82
2022/08/05 08:38:33;;;;;;;4.20;3.80;;;;;;;30.07;41.45;95592.16;4901738;29;20234;-82
2022/08/05 08:41:07;;;;;;;6.95;3.70;;;;;;;30.26;40.97;95588.56;4890003;29;20212;-82
2022/08/05 08:43:34;;;;;;;5.50;3.58;;;;;;;30.31;40.93;95583.13;4895962;29;20231;-82
2022/08/05 08:46:03;;;;;;;7.38;3.80;;;;;;;30.29;40.21;95591.41;4908787;29;20195;-82
2022/08/05 08:48:34;;;;;;;8.93;3.63;;;;;;;30.44;40.06;95595.56;4893686;29;20238;-82
2022/08/05 08:51:03;;;;;;;4.15;3.60;;;;;;;30.59;40.63;95587.28;4905125;29;20214;-82
2022/08/05 08:53:36;;;;;;;4.07;3.58;;;;;;;30.68;39.60;95596.09;4907028;29;20303;-82
2022/08/05 08:56:03;;;;;;;4.82;3.67;;;;;;;30.65;39.78;95599.34;4894947;29;20271;-82
2022/08/05 08:58:30;;;;;;;6.30;3.63;;;;;;;30.74;39.71;95605.50;4897680;29;20223;-81
2022/08/05 09:00:56;;;;;;;7.40;3.80;;;;;;;30.83;40.04;95597.56;4906063;29;20203;-82
2022/08/05 09:03:24;;;;;;;4.85;3.90;;;;;;;30.99;39.67;95592.63;4888745;29;20235;-81
2022/08/05 09:05:52;;;;;;;5.97;3.70;;;;;;;31.07;39.39;95594.56;4891535;29;20267;-82
2022/08/05 09:08:18;;;;;;;6.60;3.85;;;;;;;30.68;39.87;95588.09;4907085;29;20250;-82
2022/08/05 09:10:45;;;;;;;4.10;3.70;;;;;;;30.57;40.40;95608.06;4892599;29;20203;-84
2022/08/05 09:13:13;;;;;;;3.95;3.60;;;;;;;30.78;40.31;95614.47;4885467;29;20231;-82
2022/08/05 09:15:40;;;;;;;4.55;3.97;;;;;;;31.06;39.55;95608.97;4906587;29;20199;-83
2022/08/05 09:18:08;;;;;;;7.10;3.78;;;;;;;31.21;39.51;95612.03;4906205;29;20282;-82
2022/08/05 09:20:35;;;;;;;4.72;3.80;;;;;;;31.34;39.25;95610.38;4887833;29;20246;-83
2022/08/05 09:23:13;;;;;;;6.00;4.10;;;;;;;31.54;38.89;95614.34;4885217;29;20251;-83
2022/08/05 09:25:41;;;;;;;5.22;3.35;;;;;;;31.75;38.79;95623.34;4900284;29;20203;-83
2022/08/05 09:28:16;;;;;;;4.25;3.40;;;;;;;32.00;38.02;95629.81;4902132;29;20219;-83
2022/08/05 09:30:44;;;;;;;7.82;3.72;;;;;;;32.20;38.18;95623.91;4901817;29;20202;-82
2022/08/05 09:33:11;;;;;;;5.00;3.40;;;;;;;32.45;37.47;95627.69;4898813;29;20266;-82
2022/08/05 09:35:37;;;;;;;4.60;3.47;;;;;;;32.58;36.54;95629.41;4883350;29;20207;-82
2022/08/05 09:38:07;;;;;;;8.05;3.40;;;;;;;32.59;36.71;95628.28;4883682;29;20654;-82
2022/08/05 09:40:39;;;;;;;5.72;3.75;;;;;;;32.67;36.48;95621.41;4892354;29;20234;-82
2022/08/05 09:43:09;;;;;;;5.65;3.47;;;;;;;32.85;36.58;95622.19;4888367;29;20235;-83
2022/08/05 09:45:38;;;;;;;4.68;3.58;;;;;;;33.02;36.35;95621.34;4888062;29;20211;-83
2022/08/05 09:48:24;;;;;;;3.47;3.17;;;;;;;33.15;35.59;95617.69;4890251;29;20227;-83
2022/08/05 09:50:51;;;;;;;6.18;3.30;;;;;;;32.85;36.45;95627.50;4885195;29;20223;-82
2022/08/05 09:53:18;;;;;;;4.53;3.33;;;;;;;32.66;36.73;95627.03;4890148;29;20245;-81
2022/08/05 09:55:46;;;;;;;6.95;3.30;;;;;;;32.44;36.55;95626.13;4889656;29;20254;-83
2022/08/05 09:58:14;;;;;;;3.85;3.38;;;;;;;32.18;36.69;95625.28;4901058;29;20513;-82
2022/08/05 10:00:52;;;;;;;5.25;3.55;;;;;;;32.48;36.36;95628.94;4899719;29;20203;-82
2022/08/05 10:03:19;;;;;;;4.88;3.22;;;;;;;32.49;36.87;95625.97;4899671;29;20222;-82
2022/08/05 10:05:45;;;;;;;8.10;3.50;;;;;;;32.77;36.31;95629.09;4899230;29;20206;-82
2022/08/05 10:08:12;;;;;;;9.63;2.97;;;;;;;32.94;36.54;95631.72;4898477;29;20928;-81
2022/08/05 10:10:48;;;;;;;3.95;3.20;;;;;;;32.93;35.86;95635.47;4882114;29;20216;-82
2022/08/05 10:13:27;;;;;;;10.20;3.35;;;;;;;32.93;34.79;95630.16;4894432;29;20762;-82
2022/08/05 10:15:55;;;;;;;5.25;4.20;;;;;;;32.67;35.08;95629.41;4900134;29;20281;-81
2022/08/05 10:18:22;;;;;;;7.35;3.67;;;;;;;32.72;35.34;95631.88;4899805;29;20233;-83
2022/08/05 10:20:51;;;;;;;3.97;3.58;;;;;;;32.90;35.01;95630.81;4901127;29;20219;-82
2022/08/05 10:23:20;;;;;;;6.30;5.70;;;;;;;33.22;34.18;95632.13;4885523;29;20268;-82
2022/08/05 10:25:48;;;;;;;7.47;4.43;;;;;;;33.33;33.64;95629.91;4881436;29;20203;-83
2022/08/05 10:28:15;;;;;;;4.38;3.17;;;;;;;33.43;33.71;95636.78;4893888;29;20719;-83
2022/08/05 10:30:42;;;;;;;6.68;3.00;;;;;;;33.49;33.89;95636.25;4899221;29;20721;-82
2022/08/05 10:33:09;;;;;;;6.38;3.20;;;;;;;33.63;33.84;95638.72;4888674;29;20234;-83
2022/08/05 10:35:36;;;;;;;4.85;3.40;;;;;;;33.73;33.82;95643.69;4885893;29;20199;-83
2022/08/05 10:38:04;;;;;;;5.07;3.13;;;;;;;33.85;34.17;95641.16;4898482;29;20238;-83
2022/08/05 10:40:34;;;;;;;3.80;3.13;;;;;;;33.93;33.37;95640.31;4892709;29;20241;-83
2022/08/05 10:43:11;;;;;;;3.22;2.70;;;;;;;33.98;33.33;95642.00;4899892;29;20269;-82
2022/08/05 10:45:38;;;;;;;6.57;3.53;;;;;;;33.95;33.81;95640.00;4900193;29;20211;-82
2022/08/05 10:48:30;;;;;;;7.07;3.40;;;;;;;33.97;33.14;95632.44;4900691;29;20629;-84
2022/08/05 10:50:59;;;;;;;5.40;2.90;;;;;;;33.90;33.69;95632.16;4881626;29;20207;-83
2022/08/05 10:53:41;;;;;;;4.40;2.90;;;;;;;33.89;34.02;95635.94;4881279;29;20315;-83
2022/08/05 10:56:10;;;;;;;6.28;3.53;;;;;;;33.93;33.76;95632.28;4889384;29;20687;-82
2022/08/05 10:58:49;;;;;;;6.07;3.38;;;;;;;34.12;33.57;95629.19;4882225;29;20224;-82
2022/08/05 11:01:16;;;;;;;4.60;3.00;;;;;;;34.10;33.33;95636.72;4882490;29;20739;-83
2022/08/05 11:04:02;;;;;;;4.95;3.30;;;;;;;34.16;33.22;95634.66;4885877;29;20287;-83
2022/08/05 11:06:29;;;;;;;4.40;3.00;;;;;;;34.35;33.13;95628.88;4890275;29;20211;-83
2022/08/05 11:09:19;;;;;;;6.47;3.25;;;;;;;34.38;31.67;95623.66;4892961;29;20711;-82
2022/08/05 11:11:48;;;;;;;3.78;2.90;;;;;;;34.28;32.26;95626.72;4891391;29;20210;-83
2022/08/05 11:14:23;;;;;;;6.72;3.20;;;;;;;34.29;32.38;95625.63;4901067;29;20235;-83
2022/08/05 11:17:23;;;;;;;9.43;5.22;;;;;;;34.16;32.57;95618.63;4900507;29;20250;-83
2022/08/05 11:19:52;;;;;;;8.52;7.38;;;;;;;34.35;32.37;95623.53;4901681;29;20278;-82
2022/08/05 11:22:39;;;;;;;3.75;3.15;;;;;;;34.34;32.99;95620.09;4900133;29;20199;-83
2022/08/05 11:25:31;;;;;;;7.40;3.00;;;;;;;34.36;32.71;95612.53;4894016;29;20199;-83
2022/08/05 11:28:31;;;;;;;4.38;3.20;;;;;;;34.56;32.38;95617.06;4883033;29;20234;-85
2022/08/05 11:31:32;;;;;;;8.50;3.20;;;;;;;34.74;31.72;95611.53;4893851;29;20222;-83
2022/08/05 11:34:04;;;;;;;3.45;3.05;;;;;;;34.73;31.62;95610.75;4886916;29;20231;-83
2022/08/05 11:36:45;;;;;;;3.80;2.90;;;;;;;34.71;32.02;95609.53;4897651;29;20203;-84
2022/08/05 11:39:14;;;;;;;5.22;3.00;;;;;;;34.77;30.80;95608.22;4899759;29;20202;-83
2022/08/05 11:41:43;;;;;;;8.43;3.00;;;;;;;34.91;30.90;95606.03;4889336;29;20244;-82
2022/08/05 11:44:14;;;;;;;2.85;2.60;;;;;;;34.96;30.90;95601.25;4880222;29;20269;-83